Barbourville, New York
Current Conditions -  °F | °C
As of 12:53 AM on Thursday 29 Jan 2015 (Local Time) from KBGM Reporting Station
Clear Clear  
Wind Chill: 13°   Ceiling: Unl
Heat Index: 13°   Visibility: 10mi
Dew Point:   Wind: 3mph
Humidity: 71%   Direction: 350°N
Pressure: 30.21"   Gusts: NA
Location:  42.0783°N, 75.4419°W
Report Text: KBGM 290553Z AUTO 35003KT 10SM CLR M11/M15 A3021 RMK AO2 SLP261 T11061150 11089 21122 58003
Loading
Personal Weather Stations






























Interactive Weather Map New forecast layout! Learn more

10-Day Weather Forecast

Advertisements
Track Severe Weather on mobile